createdAt,value
2023-01-15T00:01:27.854Z,2.55
2023-01-15T00:06:29.612Z,1.60
2023-01-15T00:11:31.177Z,2.75
2023-01-15T00:16:32.591Z,2.10
2023-01-15T00:21:34.025Z,2.03
2023-01-15T00:26:54.309Z,1.98
2023-01-15T00:36:57.422Z,1.63
2023-01-15T00:41:58.856Z,1.98
2023-01-15T00:47:00.574Z,2.13
2023-01-15T00:52:04.439Z,1.92
2023-01-15T00:57:05.893Z,2.28
2023-01-15T01:02:07.647Z,2.53
2023-01-15T01:07:09.535Z,2.50
2023-01-15T01:12:11.015Z,2.13
2023-01-15T01:17:12.739Z,2.00
2023-01-15T01:22:14.219Z,2.20
2023-01-15T01:27:17.075Z,2.03
2023-01-15T01:32:18.537Z,3.15
2023-01-15T01:37:19.909Z,2.17
2023-01-15T01:42:21.483Z,2.05
2023-01-15T01:47:26.819Z,2.20
2023-01-15T01:52:32.321Z,1.85
2023-01-15T01:57:34.093Z,2.10
2023-01-15T02:02:35.663Z,2.22
2023-01-15T02:07:37.147Z,2.60
2023-01-15T02:12:39.924Z,2.20
2023-01-15T02:17:41.324Z,2.60
2023-01-15T02:23:01.527Z,2.38
2023-01-15T02:33:04.267Z,2.20
2023-01-15T02:38:07.845Z,2.60
2023-01-15T02:43:11.100Z,1.90
2023-01-15T02:48:16.487Z,2.72
2023-01-15T02:53:20.499Z,1.77
2023-01-15T02:58:24.848Z,3.05
2023-01-15T03:03:46.472Z,2.08
2023-01-15T03:08:48.183Z,2.60
2023-01-15T03:14:09.467Z,2.25
2023-01-15T03:19:10.971Z,2.25
2023-01-15T03:24:13.301Z,2.60
2023-01-15T03:29:21.268Z,1.92
2023-01-15T03:34:24.150Z,1.65
2023-01-15T03:39:25.531Z,1.80
2023-01-15T03:44:39.729Z,2.22
2023-01-15T03:49:51.684Z,2.35
2023-01-15T03:54:53.238Z,2.45
2023-01-15T03:59:57.376Z,2.50
2023-01-15T04:04:59.176Z,2.60
2023-01-15T04:10:00.765Z,2.15
2023-01-15T04:15:02.124Z,2.33
2023-01-15T04:20:03.806Z,2.03
2023-01-15T04:25:06.236Z,2.80
2023-01-15T04:30:08.028Z,2.10
2023-01-15T04:35:09.454Z,2.78
2023-01-15T04:40:31.237Z,1.80
2023-01-15T04:45:32.625Z,2.85
2023-01-15T04:50:34.050Z,1.90
2023-01-15T04:55:35.464Z,2.58
2023-01-15T05:00:36.917Z,2.47
2023-01-15T05:05:38.334Z,2.42
2023-01-15T05:10:39.730Z,2.20
2023-01-15T05:15:42.815Z,2.13
2023-01-15T05:20:44.278Z,2.20
2023-01-15T05:25:45.671Z,2.47
2023-01-15T05:30:47.130Z,2.75
2023-01-15T05:35:49.595Z,2.45
2023-01-15T05:40:50.965Z,1.77
2023-01-15T05:45:52.403Z,2.15
2023-01-15T05:50:53.882Z,1.92
2023-01-15T05:55:55.262Z,2.33
2023-01-15T06:00:56.713Z,1.77
2023-01-15T06:05:58.261Z,1.95
2023-01-15T06:10:59.722Z,2.00
2023-01-15T06:16:01.437Z,1.60
2023-01-15T06:21:04.327Z,1.65
2023-01-15T06:26:07.477Z,1.58
2023-01-15T06:31:09.846Z,2.03
2023-01-15T06:36:13.115Z,1.70
2023-01-15T06:41:51.090Z,1.92
2023-01-15T06:47:11.266Z,1.50
2023-01-15T06:52:13.407Z,2.00
2023-01-15T06:57:14.888Z,2.00
2023-01-15T07:02:17.937Z,2.45
2023-01-15T07:07:20.279Z,1.83
2023-01-15T07:12:22.128Z,2.13
2023-01-15T07:17:23.505Z,1.92
2023-01-15T07:22:24.931Z,2.20
2023-01-15T07:27:26.355Z,2.70
2023-01-15T07:32:27.772Z,2.20
2023-01-15T07:37:30.677Z,2.92
2023-01-15T07:42:50.429Z,1.98
2023-01-15T07:48:10.391Z,2.10
2023-01-15T07:53:12.673Z,2.67
2023-01-15T07:58:14.124Z,2.30
2023-01-15T08:03:15.549Z,1.80
2023-01-15T08:08:17.665Z,2.22
2023-01-15T08:13:37.533Z,2.53
2023-01-15T08:18:38.982Z,2.60
2023-01-15T08:23:40.458Z,2.65
2023-01-15T08:28:42.895Z,2.22
2023-01-15T08:33:44.325Z,2.08
2023-01-15T08:38:48.120Z,2.55
2023-01-15T08:43:49.575Z,1.85
2023-01-15T08:48:51.049Z,2.15
2023-01-15T08:53:52.453Z,2.22
2023-01-15T08:58:53.824Z,1.73
2023-01-15T09:03:55.213Z,2.75
2023-01-15T09:08:56.593Z,1.80
2023-01-15T09:13:58.065Z,2.10
2023-01-15T09:18:59.497Z,2.10
2023-01-15T09:24:01.462Z,1.90
2023-01-15T09:29:03.397Z,2.45
2023-01-15T09:34:05.336Z,1.90
2023-01-15T09:39:07.196Z,2.50
2023-01-15T09:44:12.352Z,2.20
2023-01-15T09:49:13.768Z,2.75
2023-01-15T09:54:18.297Z,1.90
2023-01-15T09:59:34.774Z,2.25
2023-01-15T10:04:40.552Z,3.08
2023-01-15T10:09:42.496Z,2.75
2023-01-15T10:14:48.968Z,2.50
2023-01-15T10:19:51.188Z,1.83
2023-01-15T10:24:56.754Z,2.03
2023-01-15T10:30:15.122Z,2.72
2023-01-15T10:35:49.477Z,2.55
2023-01-15T10:40:53.942Z,2.88
2023-01-15T10:46:03.092Z,2.40
2023-01-15T10:51:12.716Z,2.80
2023-01-15T10:56:19.961Z,2.78
2023-01-15T11:01:23.720Z,2.40
2023-01-15T11:06:27.840Z,2.35
2023-01-15T11:11:56.558Z,2.65
2023-01-15T11:17:07.524Z,2.10
2023-01-15T11:22:11.349Z,3.17
2023-01-15T11:27:17.628Z,2.78
2023-01-15T11:32:20.975Z,2.70
2023-01-15T11:37:22.869Z,2.58
2023-01-15T11:42:42.883Z,2.25
2023-01-15T11:48:12.673Z,2.92
2023-01-15T11:53:19.303Z,2.87
2023-01-15T11:58:21.547Z,2.58
2023-01-15T12:03:24.691Z,2.67
2023-01-15T12:08:26.124Z,2.40
2023-01-15T12:13:46.947Z,2.03
2023-01-15T12:18:55.960Z,2.42
2023-01-15T12:24:08.316Z,2.22
2023-01-15T12:29:19.626Z,2.53
2023-01-15T12:34:25.410Z,2.40
2023-01-15T12:39:47.937Z,2.75
2023-01-15T12:45:01.388Z,2.40
2023-01-15T12:50:06.868Z,2.17
2023-01-15T12:55:22.514Z,2.50
2023-01-15T13:00:26.111Z,2.40
2023-01-15T13:05:30.269Z,3.05
2023-01-15T13:10:35.382Z,2.00
2023-01-15T13:15:40.551Z,1.63
2023-01-15T13:20:47.054Z,1.58
2023-01-15T13:25:57.470Z,1.13
2023-01-15T13:31:01.657Z,1.30
2023-01-15T13:36:15.739Z,1.70
2023-01-15T13:41:41.579Z,1.67
2023-01-15T13:46:43.790Z,1.40
2023-01-15T13:51:47.997Z,2.33
2023-01-15T13:57:21.319Z,2.15
2023-01-15T14:02:27.008Z,2.80
2023-01-15T14:07:36.234Z,2.42
2023-01-15T14:12:43.521Z,1.88
2023-01-15T14:17:55.253Z,1.80
2023-01-15T14:23:01.053Z,1.67
2023-01-15T14:28:02.619Z,2.45
2023-01-15T14:33:06.888Z,1.98
2023-01-15T14:38:12.383Z,2.33
2023-01-15T14:43:19.004Z,2.30
2023-01-15T14:48:20.625Z,2.55
2023-01-15T14:53:33.656Z,1.58
2023-01-15T14:58:56.633Z,1.88
2023-01-15T15:04:00.024Z,2.15
2023-01-15T15:09:03.176Z,2.65
2023-01-15T15:14:05.643Z,2.03
2023-01-15T15:19:25.806Z,2.72
2023-01-15T15:29:29.326Z,1.77
2023-01-15T15:34:32.330Z,2.40
2023-01-15T15:39:50.853Z,2.38
2023-01-15T15:45:15.467Z,2.10
2023-01-15T15:50:21.488Z,1.88
2023-01-15T15:55:23.671Z,1.85
2023-01-15T16:00:30.298Z,1.67
2023-01-15T16:05:32.287Z,2.08
2023-01-15T16:10:34.437Z,1.67
2023-01-15T16:15:39.998Z,2.10
2023-01-15T16:20:41.568Z,1.70
2023-01-15T16:25:43.026Z,2.60
2023-01-15T16:30:46.360Z,2.08
2023-01-15T16:35:48.236Z,2.63
2023-01-15T16:40:49.786Z,2.75
2023-01-15T16:46:03.777Z,1.60
2023-01-15T16:51:23.438Z,3.47
2023-01-15T16:56:48.163Z,3.72
2023-01-15T17:01:52.471Z,2.67
2023-01-15T17:06:55.168Z,2.40
2023-01-15T17:11:56.889Z,2.78
2023-01-15T17:17:17.700Z,3.15
2023-01-15T17:22:22.107Z,2.50
2023-01-15T17:27:24.085Z,2.17
2023-01-15T17:32:44.005Z,2.40
2023-01-15T17:37:45.459Z,2.90
2023-01-15T17:42:47.323Z,2.05
2023-01-15T17:47:49.138Z,2.10
2023-01-15T17:52:50.740Z,2.78
2023-01-15T17:58:10.727Z,2.70
2023-01-15T18:03:39.678Z,2.30
2023-01-15T18:08:44.385Z,5.75
2023-01-15T18:13:45.862Z,3.75
2023-01-15T18:18:47.324Z,2.20
2023-01-15T18:23:48.759Z,1.70
2023-01-15T18:28:51.085Z,1.65
2023-01-15T18:33:52.661Z,2.22
2023-01-15T18:38:55.741Z,1.77
2023-01-15T18:44:17.499Z,1.88
2023-01-15T18:49:19.331Z,3.75
2023-01-15T18:54:20.724Z,1.95
2023-01-15T18:59:22.199Z,2.55
2023-01-15T19:04:23.646Z,2.85
2023-01-15T19:09:25.644Z,2.58
2023-01-15T19:14:45.461Z,2.60
2023-01-15T19:19:46.944Z,3.08
2023-01-15T19:24:48.510Z,1.50
2023-01-15T19:29:49.941Z,1.50
2023-01-15T19:34:52.979Z,1.08
2023-01-15T19:39:54.438Z,1.40
2023-01-15T19:45:14.273Z,1.52
2023-01-15T19:50:20.012Z,1.20
2023-01-15T19:55:22.533Z,1.23
2023-01-15T20:00:24.296Z,1.25
2023-01-15T20:05:45.689Z,1.40
2023-01-15T20:10:48.857Z,1.80
2023-01-15T20:15:50.243Z,2.05
2023-01-15T20:20:54.511Z,1.77
2023-01-15T20:26:00.462Z,2.15
2023-01-15T20:31:02.372Z,2.15
2023-01-15T20:36:04.082Z,2.00
2023-01-15T20:41:26.737Z,2.42
2023-01-15T20:46:28.143Z,2.88
2023-01-15T20:51:29.579Z,3.45
2023-01-15T20:56:31.022Z,3.22
2023-01-15T21:01:32.560Z,3.55
2023-01-15T21:06:34.048Z,3.75
2023-01-15T21:11:35.479Z,3.50
2023-01-15T21:16:36.954Z,3.20
2023-01-15T21:21:38.645Z,3.67
2023-01-15T21:26:40.150Z,3.40
2023-01-15T21:31:42.824Z,3.03
2023-01-15T21:36:44.348Z,2.97
2023-01-15T21:42:04.198Z,2.80
2023-01-15T21:47:06.748Z,3.03
2023-01-15T21:52:09.421Z,2.30
2023-01-15T21:57:10.844Z,2.35
2023-01-15T22:02:15.540Z,1.90
2023-01-15T22:07:17.692Z,1.70
2023-01-15T22:12:19.154Z,1.77
2023-01-15T22:17:20.789Z,1.90
2023-01-15T22:22:23.028Z,1.80
2023-01-15T22:27:24.650Z,1.50
2023-01-15T22:32:26.071Z,1.45
2023-01-15T22:37:27.524Z,1.70
2023-01-15T22:42:31.904Z,1.80
2023-01-15T22:47:33.362Z,2.00
2023-01-15T22:52:35.502Z,3.35
2023-01-15T22:57:36.912Z,3.97
2023-01-15T23:02:58.053Z,2.70
2023-01-15T23:07:59.530Z,3.38
2023-01-15T23:13:01.014Z,2.88
2023-01-15T23:18:02.427Z,2.75
2023-01-15T23:23:03.878Z,3.50
2023-01-15T23:28:05.317Z,3.42
2023-01-15T23:33:06.823Z,3.42
2023-01-15T23:38:08.257Z,3.80
2023-01-15T23:43:29.186Z,4.47
2023-01-15T23:48:30.596Z,5.00
2023-01-15T23:53:32.255Z,5.10
2023-01-15T23:58:33.870Z,5.15
